sensor_id;sensor_type;location;lat;lon;timestamp;P1;durP1;ratioP1;P2;durP2;ratioP2
9485;SDS011;4781;48.776;9.200;2022-08-30T00:01:27;5.83;;;2.92;;
9485;SDS011;4781;48.776;9.200;2022-08-30T00:03:54;7.67;;;2.90;;
9485;SDS011;4781;48.776;9.200;2022-08-30T00:06:23;7.33;;;3.35;;
9485;SDS011;4781;48.776;9.200;2022-08-30T00:08:53;6.53;;;3.00;;
9485;SDS011;4781;48.776;9.200;2022-08-30T00:11:23;7.17;;;2.90;;
9485;SDS011;4781;48.776;9.200;2022-08-30T00:13:54;5.17;;;3.02;;
9485;SDS011;4781;48.776;9.200;2022-08-30T00:16:23;7.42;;;3.45;;
9485;SDS011;4781;48.776;9.200;2022-08-30T00:18:53;7.87;;;3.00;;
9485;SDS011;4781;48.776;9.200;2022-08-30T00:21:22;7.75;;;3.67;;
9485;SDS011;4781;48.776;9.200;2022-08-30T00:23:52;5.28;;;3.08;;
9485;SDS011;4781;48.776;9.200;2022-08-30T00:26:21;6.53;;;3.17;;
9485;SDS011;4781;48.776;9.200;2022-08-30T00:28:49;5.47;;;3.20;;
9485;SDS011;4781;48.776;9.200;2022-08-30T00:31:17;8.08;;;3.52;;
9485;SDS011;4781;48.776;9.200;2022-08-30T00:33:46;6.90;;;3.40;;
9485;SDS011;4781;48.776;9.200;2022-08-30T00:36:14;5.92;;;3.20;;
9485;SDS011;4781;48.776;9.200;2022-08-30T00:38:43;4.70;;;2.80;;
9485;SDS011;4781;48.776;9.200;2022-08-30T00:41:11;7.90;;;3.30;;
9485;SDS011;4781;48.776;9.200;2022-08-30T00:43:39;9.58;;;3.60;;
9485;SDS011;4781;48.776;9.200;2022-08-30T00:46:08;7.03;;;3.30;;
9485;SDS011;4781;48.776;9.200;2022-08-30T00:48:42;6.62;;;3.50;;
9485;SDS011;4781;48.776;9.200;2022-08-30T00:51:10;6.47;;;3.20;;
9485;SDS011;4781;48.776;9.200;2022-08-30T00:53:40;6.50;;;3.22;;
9485;SDS011;4781;48.776;9.200;2022-08-30T00:56:13;6.30;;;3.02;;
9485;SDS011;4781;48.776;9.200;2022-08-30T00:58:43;6.83;;;3.37;;
9485;SDS011;4781;48.776;9.200;2022-08-30T01:01:15;5.67;;;3.35;;
9485;SDS011;4781;48.776;9.200;2022-08-30T01:03:44;8.78;;;3.30;;
9485;SDS011;4781;48.776;9.200;2022-08-30T01:06:14;6.47;;;3.52;;
9485;SDS011;4781;48.776;9.200;2022-08-30T01:08:43;6.17;;;3.05;;
9485;SDS011;4781;48.776;9.200;2022-08-30T01:11:14;8.03;;;4.42;;
9485;SDS011;4781;48.776;9.200;2022-08-30T01:13:46;7.05;;;3.62;;
9485;SDS011;4781;48.776;9.200;2022-08-30T01:16:17;9.03;;;3.87;;
9485;SDS011;4781;48.776;9.200;2022-08-30T01:18:47;6.20;;;3.33;;
9485;SDS011;4781;48.776;9.200;2022-08-30T01:21:37;6.60;;;3.70;;
9485;SDS011;4781;48.776;9.200;2022-08-30T01:24:18;7.08;;;3.87;;
9485;SDS011;4781;48.776;9.200;2022-08-30T01:26:47;6.72;;;3.35;;
9485;SDS011;4781;48.776;9.200;2022-08-30T01:29:16;7.50;;;3.58;;
9485;SDS011;4781;48.776;9.200;2022-08-30T01:31:47;6.28;;;3.52;;
9485;SDS011;4781;48.776;9.200;2022-08-30T01:34:16;8.70;;;3.83;;
9485;SDS011;4781;48.776;9.200;2022-08-30T01:36:45;7.25;;;3.30;;
9485;SDS011;4781;48.776;9.200;2022-08-30T01:39:15;6.00;;;3.33;;
9485;SDS011;4781;48.776;9.200;2022-08-30T01:41:45;5.60;;;3.20;;
9485;SDS011;4781;48.776;9.200;2022-08-30T01:44:14;6.75;;;3.45;;
9485;SDS011;4781;48.776;9.200;2022-08-30T01:46:44;6.78;;;3.62;;
9485;SDS011;4781;48.776;9.200;2022-08-30T01:49:15;7.20;;;3.70;;
9485;SDS011;4781;48.776;9.200;2022-08-30T01:51:45;7.67;;;3.95;;
9485;SDS011;4781;48.776;9.200;2022-08-30T01:54:13;6.33;;;3.62;;
9485;SDS011;4781;48.776;9.200;2022-08-30T01:56:42;7.72;;;3.85;;
9485;SDS011;4781;48.776;9.200;2022-08-30T01:59:10;6.78;;;3.75;;
9485;SDS011;4781;48.776;9.200;2022-08-30T02:01:39;6.55;;;3.42;;
9485;SDS011;4781;48.776;9.200;2022-08-30T02:04:08;6.62;;;3.90;;
9485;SDS011;4781;48.776;9.200;2022-08-30T02:06:39;9.03;;;3.77;;
9485;SDS011;4781;48.776;9.200;2022-08-30T02:09:10;5.62;;;3.40;;
9485;SDS011;4781;48.776;9.200;2022-08-30T02:11:39;9.98;;;3.65;;
9485;SDS011;4781;48.776;9.200;2022-08-30T02:14:08;6.78;;;3.42;;
9485;SDS011;4781;48.776;9.200;2022-08-30T02:16:36;7.92;;;4.12;;
9485;SDS011;4781;48.776;9.200;2022-08-30T02:19:05;6.42;;;3.70;;
9485;SDS011;4781;48.776;9.200;2022-08-30T02:21:35;9.03;;;4.53;;
9485;SDS011;4781;48.776;9.200;2022-08-30T02:24:03;7.60;;;4.10;;
9485;SDS011;4781;48.776;9.200;2022-08-30T02:26:32;7.70;;;4.42;;
9485;SDS011;4781;48.776;9.200;2022-08-30T02:29:02;8.63;;;3.92;;
9485;SDS011;4781;48.776;9.200;2022-08-30T02:31:31;7.92;;;4.00;;
9485;SDS011;4781;48.776;9.200;2022-08-30T02:34:00;7.30;;;3.90;;
9485;SDS011;4781;48.776;9.200;2022-08-30T02:36:29;6.53;;;3.62;;
9485;SDS011;4781;48.776;9.200;2022-08-30T02:38:58;10.48;;;3.85;;
9485;SDS011;4781;48.776;9.200;2022-08-30T02:41:26;8.05;;;3.60;;
9485;SDS011;4781;48.776;9.200;2022-08-30T02:43:55;6.25;;;3.55;;
9485;SDS011;4781;48.776;9.200;2022-08-30T02:46:25;7.35;;;3.37;;
9485;SDS011;4781;48.776;9.200;2022-08-30T02:48:54;8.33;;;4.30;;
9485;SDS011;4781;48.776;9.200;2022-08-30T02:51:22;7.37;;;4.22;;
9485;SDS011;4781;48.776;9.200;2022-08-30T02:53:51;7.50;;;4.20;;
9485;SDS011;4781;48.776;9.200;2022-08-30T02:56:19;7.87;;;4.08;;
9485;SDS011;4781;48.776;9.200;2022-08-30T02:58:48;5.65;;;3.47;;
9485;SDS011;4781;48.776;9.200;2022-08-30T03:01:16;6.05;;;3.65;;
9485;SDS011;4781;48.776;9.200;2022-08-30T03:03:45;8.75;;;4.17;;
9485;SDS011;4781;48.776;9.200;2022-08-30T03:06:15;6.47;;;3.77;;
9485;SDS011;4781;48.776;9.200;2022-08-30T03:08:43;5.87;;;3.50;;
9485;SDS011;4781;48.776;9.200;2022-08-30T03:11:12;13.28;;;3.85;;
9485;SDS011;4781;48.776;9.200;2022-08-30T03:13:40;7.40;;;3.83;;
9485;SDS011;4781;48.776;9.200;2022-08-30T03:16:09;9.03;;;3.60;;
9485;SDS011;4781;48.776;9.200;2022-08-30T03:18:38;5.50;;;3.67;;
9485;SDS011;4781;48.776;9.200;2022-08-30T03:21:09;5.72;;;3.47;;
9485;SDS011;4781;48.776;9.200;2022-08-30T03:23:39;8.33;;;3.52;;
9485;SDS011;4781;48.776;9.200;2022-08-30T03:26:08;5.72;;;3.58;;
9485;SDS011;4781;48.776;9.200;2022-08-30T03:28:40;9.38;;;4.00;;
9485;SDS011;4781;48.776;9.200;2022-08-30T03:31:09;7.85;;;3.90;;
9485;SDS011;4781;48.776;9.200;2022-08-30T03:33:38;7.17;;;4.08;;
9485;SDS011;4781;48.776;9.200;2022-08-30T03:36:07;11.50;;;4.08;;
9485;SDS011;4781;48.776;9.200;2022-08-30T03:38:36;6.92;;;4.03;;
9485;SDS011;4781;48.776;9.200;2022-08-30T03:41:05;8.95;;;4.25;;
9485;SDS011;4781;48.776;9.200;2022-08-30T03:43:34;10.08;;;4.03;;
9485;SDS011;4781;48.776;9.200;2022-08-30T03:46:02;7.12;;;4.25;;
9485;SDS011;4781;48.776;9.200;2022-08-30T03:48:32;8.25;;;4.20;;
9485;SDS011;4781;48.776;9.200;2022-08-30T03:51:00;9.63;;;4.45;;
9485;SDS011;4781;48.776;9.200;2022-08-30T03:53:29;6.55;;;3.80;;
9485;SDS011;4781;48.776;9.200;2022-08-30T03:55:57;8.15;;;4.05;;
9485;SDS011;4781;48.776;9.200;2022-08-30T03:58:26;6.55;;;3.20;;
9485;SDS011;4781;48.776;9.200;2022-08-30T04:00:54;8.00;;;3.95;;
9485;SDS011;4781;48.776;9.200;2022-08-30T04:03:23;9.83;;;3.98;;
9485;SDS011;4781;48.776;9.200;2022-08-30T04:05:57;8.15;;;3.72;;
9485;SDS011;4781;48.776;9.200;2022-08-30T04:08:21;6.72;;;3.62;;
9485;SDS011;4781;48.776;9.200;2022-08-30T04:10:50;7.17;;;3.92;;
9485;SDS011;4781;48.776;9.200;2022-08-30T04:13:20;6.97;;;4.00;;
9485;SDS011;4781;48.776;9.200;2022-08-30T04:15:50;7.58;;;4.20;;
9485;SDS011;4781;48.776;9.200;2022-08-30T04:18:18;8.10;;;4.17;;
9485;SDS011;4781;48.776;9.200;2022-08-30T04:20:47;9.30;;;4.45;;
9485;SDS011;4781;48.776;9.200;2022-08-30T04:23:17;10.03;;;4.80;;
9485;SDS011;4781;48.776;9.200;2022-08-30T04:25:46;7.95;;;4.42;;
9485;SDS011;4781;48.776;9.200;2022-08-30T04:28:14;6.90;;;4.00;;
9485;SDS011;4781;48.776;9.200;2022-08-30T04:30:43;8.55;;;4.70;;
9485;SDS011;4781;48.776;9.200;2022-08-30T04:33:13;7.40;;;4.35;;
9485;SDS011;4781;48.776;9.200;2022-08-30T04:35:43;10.55;;;4.60;;
9485;SDS011;4781;48.776;9.200;2022-08-30T04:38:15;8.13;;;4.40;;
9485;SDS011;4781;48.776;9.200;2022-08-30T04:40:45;8.53;;;4.62;;
9485;SDS011;4781;48.776;9.200;2022-08-30T04:43:14;6.12;;;3.58;;
9485;SDS011;4781;48.776;9.200;2022-08-30T04:45:42;7.55;;;4.08;;
9485;SDS011;4781;48.776;9.200;2022-08-30T04:48:12;9.35;;;4.75;;
9485;SDS011;4781;48.776;9.200;2022-08-30T04:50:42;9.68;;;4.65;;
9485;SDS011;4781;48.776;9.200;2022-08-30T04:53:11;10.13;;;4.70;;
9485;SDS011;4781;48.776;9.200;2022-08-30T04:55:41;10.65;;;4.30;;
9485;SDS011;4781;48.776;9.200;2022-08-30T04:58:10;8.15;;;4.42;;
9485;SDS011;4781;48.776;9.200;2022-08-30T05:00:39;10.23;;;4.53;;
9485;SDS011;4781;48.776;9.200;2022-08-30T05:03:09;7.80;;;4.35;;
9485;SDS011;4781;48.776;9.200;2022-08-30T05:05:38;8.00;;;4.55;;
9485;SDS011;4781;48.776;9.200;2022-08-30T05:08:13;8.25;;;4.08;;
9485;SDS011;4781;48.776;9.200;2022-08-30T05:10:40;7.17;;;4.65;;
9485;SDS011;4781;48.776;9.200;2022-08-30T05:13:11;6.37;;;3.60;;
9485;SDS011;4781;48.776;9.200;2022-08-30T05:15:41;8.20;;;4.83;;
9485;SDS011;4781;48.776;9.200;2022-08-30T05:18:12;8.95;;;4.10;;
9485;SDS011;4781;48.776;9.200;2022-08-30T05:20:41;7.40;;;3.67;;
9485;SDS011;4781;48.776;9.200;2022-08-30T05:23:10;8.80;;;4.30;;
9485;SDS011;4781;48.776;9.200;2022-08-30T05:25:39;7.33;;;4.00;;
9485;SDS011;4781;48.776;9.200;2022-08-30T05:28:08;9.35;;;4.30;;
9485;SDS011;4781;48.776;9.200;2022-08-30T05:30:37;10.72;;;4.78;;
9485;SDS011;4781;48.776;9.200;2022-08-30T05:33:05;7.12;;;4.28;;
9485;SDS011;4781;48.776;9.200;2022-08-30T05:35:33;6.55;;;3.83;;
9485;SDS011;4781;48.776;9.200;2022-08-30T05:38:02;8.23;;;4.03;;
9485;SDS011;4781;48.776;9.200;2022-08-30T05:40:30;8.05;;;4.45;;
9485;SDS011;4781;48.776;9.200;2022-08-30T05:42:59;9.58;;;3.90;;
9485;SDS011;4781;48.776;9.200;2022-08-30T05:45:27;9.45;;;4.55;;
9485;SDS011;4781;48.776;9.200;2022-08-30T05:47:55;9.33;;;4.85;;
9485;SDS011;4781;48.776;9.200;2022-08-30T05:50:24;9.85;;;4.60;;
9485;SDS011;4781;48.776;9.200;2022-08-30T05:52:52;9.68;;;4.55;;
9485;SDS011;4781;48.776;9.200;2022-08-30T05:55:20;7.70;;;4.22;;
9485;SDS011;4781;48.776;9.200;2022-08-30T05:57:49;8.98;;;4.72;;
9485;SDS011;4781;48.776;9.200;2022-08-30T06:00:17;7.43;;;4.60;;
9485;SDS011;4781;48.776;9.200;2022-08-30T06:02:46;10.35;;;4.87;;
9485;SDS011;4781;48.776;9.200;2022-08-30T06:05:18;8.55;;;4.45;;
9485;SDS011;4781;48.776;9.200;2022-08-30T06:07:47;8.45;;;4.10;;
9485;SDS011;4781;48.776;9.200;2022-08-30T06:10:15;7.72;;;4.33;;
9485;SDS011;4781;48.776;9.200;2022-08-30T06:12:43;9.00;;;4.83;;
9485;SDS011;4781;48.776;9.200;2022-08-30T06:15:12;11.18;;;4.50;;
9485;SDS011;4781;48.776;9.200;2022-08-30T06:17:41;7.60;;;3.98;;
9485;SDS011;4781;48.776;9.200;2022-08-30T06:20:09;9.68;;;5.00;;
9485;SDS011;4781;48.776;9.200;2022-08-30T06:22:39;8.90;;;5.12;;
9485;SDS011;4781;48.776;9.200;2022-08-30T06:25:08;11.03;;;5.05;;
9485;SDS011;4781;48.776;9.200;2022-08-30T06:27:37;7.47;;;4.85;;
9485;SDS011;4781;48.776;9.200;2022-08-30T06:30:08;9.85;;;4.90;;
9485;SDS011;4781;48.776;9.200;2022-08-30T06:32:55;8.98;;;5.35;;
9485;SDS011;4781;48.776;9.200;2022-08-30T06:35:24;9.28;;;4.60;;
9485;SDS011;4781;48.776;9.200;2022-08-30T06:37:54;8.13;;;4.62;;
9485;SDS011;4781;48.776;9.200;2022-08-30T06:40:23;8.10;;;4.37;;
9485;SDS011;4781;48.776;9.200;2022-08-30T06:42:51;9.23;;;4.33;;
9485;SDS011;4781;48.776;9.200;2022-08-30T06:45:20;10.23;;;4.70;;
9485;SDS011;4781;48.776;9.200;2022-08-30T06:47:48;8.45;;;4.83;;
9485;SDS011;4781;48.776;9.200;2022-08-30T06:50:17;7.97;;;4.83;;
9485;SDS011;4781;48.776;9.200;2022-08-30T06:52:46;9.93;;;5.37;;
9485;SDS011;4781;48.776;9.200;2022-08-30T06:55:15;6.87;;;4.30;;
9485;SDS011;4781;48.776;9.200;2022-08-30T06:57:44;7.33;;;4.92;;
9485;SDS011;4781;48.776;9.200;2022-08-30T07:00:14;8.20;;;4.33;;
9485;SDS011;4781;48.776;9.200;2022-08-30T07:02:43;6.25;;;4.22;;
9485;SDS011;4781;48.776;9.200;2022-08-30T07:05:11;11.10;;;4.05;;
9485;SDS011;4781;48.776;9.200;2022-08-30T07:07:41;8.30;;;4.83;;
9485;SDS011;4781;48.776;9.200;2022-08-30T07:10:09;7.78;;;5.15;;
9485;SDS011;4781;48.776;9.200;2022-08-30T07:12:39;7.83;;;4.58;;
9485;SDS011;4781;48.776;9.200;2022-08-30T07:15:08;6.90;;;4.28;;
9485;SDS011;4781;48.776;9.200;2022-08-30T07:17:37;6.78;;;3.60;;
9485;SDS011;4781;48.776;9.200;2022-08-30T07:20:23;7.08;;;3.75;;
9485;SDS011;4781;48.776;9.200;2022-08-30T07:22:52;7.10;;;4.28;;
9485;SDS011;4781;48.776;9.200;2022-08-30T07:25:20;6.67;;;3.85;;
9485;SDS011;4781;48.776;9.200;2022-08-30T07:27:48;6.47;;;3.67;;
9485;SDS011;4781;48.776;9.200;2022-08-30T07:30:17;7.87;;;3.77;;
9485;SDS011;4781;48.776;9.200;2022-08-30T07:32:45;10.15;;;3.95;;
9485;SDS011;4781;48.776;9.200;2022-08-30T07:35:14;8.40;;;3.90;;
9485;SDS011;4781;48.776;9.200;2022-08-30T07:37:43;6.53;;;3.55;;
9485;SDS011;4781;48.776;9.200;2022-08-30T07:40:11;9.48;;;4.62;;
9485;SDS011;4781;48.776;9.200;2022-08-30T07:42:40;7.58;;;4.15;;
9485;SDS011;4781;48.776;9.200;2022-08-30T07:45:09;6.22;;;3.85;;
9485;SDS011;4781;48.776;9.200;2022-08-30T07:47:38;7.92;;;4.15;;
9485;SDS011;4781;48.776;9.200;2022-08-30T07:50:06;9.15;;;4.60;;
9485;SDS011;4781;48.776;9.200;2022-08-30T07:52:35;8.18;;;4.60;;
9485;SDS011;4781;48.776;9.200;2022-08-30T07:55:04;11.68;;;5.17;;
9485;SDS011;4781;48.776;9.200;2022-08-30T07:57:33;10.15;;;4.80;;
9485;SDS011;4781;48.776;9.200;2022-08-30T08:00:02;7.40;;;4.35;;
9485;SDS011;4781;48.776;9.200;2022-08-30T08:02:32;11.18;;;5.00;;
9485;SDS011;4781;48.776;9.200;2022-08-30T08:05:02;8.28;;;4.28;;
9485;SDS011;4781;48.776;9.200;2022-08-30T08:07:33;7.55;;;4.03;;
9485;SDS011;4781;48.776;9.200;2022-08-30T08:10:02;12.43;;;5.12;;
9485;SDS011;4781;48.776;9.200;2022-08-30T08:12:31;11.88;;;4.50;;
9485;SDS011;4781;48.776;9.200;2022-08-30T08:15:01;9.33;;;4.42;;
9485;SDS011;4781;48.776;9.200;2022-08-30T08:17:30;7.78;;;4.03;;
9485;SDS011;4781;48.776;9.200;2022-08-30T08:19:58;11.48;;;5.15;;
9485;SDS011;4781;48.776;9.200;2022-08-30T08:22:26;11.45;;;4.22;;
9485;SDS011;4781;48.776;9.200;2022-08-30T08:24:55;8.08;;;3.85;;
9485;SDS011;4781;48.776;9.200;2022-08-30T08:27:23;7.85;;;3.83;;
9485;SDS011;4781;48.776;9.200;2022-08-30T08:29:52;7.12;;;3.60;;
9485;SDS011;4781;48.776;9.200;2022-08-30T08:32:20;8.33;;;3.30;;
9485;SDS011;4781;48.776;9.200;2022-08-30T08:34:48;7.17;;;4.03;;
9485;SDS011;4781;48.776;9.200;2022-08-30T08:37:17;7.03;;;3.83;;
9485;SDS011;4781;48.776;9.200;2022-08-30T08:39:46;9.13;;;4.05;;
9485;SDS011;4781;48.776;9.200;2022-08-30T08:42:19;8.08;;;3.67;;
9485;SDS011;4781;48.776;9.200;2022-08-30T08:45:05;7.72;;;3.67;;
9485;SDS011;4781;48.776;9.200;2022-08-30T08:47:56;7.83;;;3.90;;
9485;SDS011;4781;48.776;9.200;2022-08-30T08:50:30;10.55;;;4.40;;
9485;SDS011;4781;48.776;9.200;2022-08-30T08:53:03;7.33;;;3.90;;
9485;SDS011;4781;48.776;9.200;2022-08-30T08:56:09;11.38;;;4.72;;
9485;SDS011;4781;48.776;9.200;2022-08-30T08:58:45;7.28;;;4.20;;
9485;SDS011;4781;48.776;9.200;2022-08-30T09:01:20;10.45;;;4.67;;
9485;SDS011;4781;48.776;9.200;2022-08-30T09:03:52;6.53;;;3.45;;
9485;SDS011;4781;48.776;9.200;2022-08-30T09:06:25;6.65;;;3.85;;
9485;SDS011;4781;48.776;9.200;2022-08-30T09:09:19;5.40;;;3.00;;
9485;SDS011;4781;48.776;9.200;2022-08-30T09:11:57;6.30;;;3.60;;
9485;SDS011;4781;48.776;9.200;2022-08-30T09:14:28;6.33;;;3.30;;
9485;SDS011;4781;48.776;9.200;2022-08-30T09:17:00;5.97;;;3.55;;
9485;SDS011;4781;48.776;9.200;2022-08-30T09:19:33;5.97;;;3.17;;
9485;SDS011;4781;48.776;9.200;2022-08-30T09:25:08;6.10;;;3.27;;
9485;SDS011;4781;48.776;9.200;2022-08-30T09:27:52;4.70;;;3.15;;
9485;SDS011;4781;48.776;9.200;2022-08-30T09:30:26;5.62;;;3.15;;
9485;SDS011;4781;48.776;9.200;2022-08-30T09:32:57;8.75;;;3.37;;
9485;SDS011;4781;48.776;9.200;2022-08-30T09:35:33;5.78;;;3.02;;
9485;SDS011;4781;48.776;9.200;2022-08-30T09:38:21;6.00;;;3.30;;
9485;SDS011;4781;48.776;9.200;2022-08-30T09:40:58;5.05;;;2.80;;
9485;SDS011;4781;48.776;9.200;2022-08-30T09:43:31;6.05;;;3.45;;
9485;SDS011;4781;48.776;9.200;2022-08-30T09:48:42;4.67;;;2.95;;
9485;SDS011;4781;48.776;9.200;2022-08-30T10:11:18;5.30;;;2.93;;
9485;SDS011;4781;48.776;9.200;2022-08-30T10:20:03;4.75;;;2.90;;
9485;SDS011;4781;48.776;9.200;2022-08-30T10:22:49;4.37;;;2.70;;
9485;SDS011;4781;48.776;9.200;2022-08-30T10:25:24;5.22;;;3.00;;
9485;SDS011;4781;48.776;9.200;2022-08-30T10:28:06;4.75;;;2.92;;
9485;SDS011;4781;48.776;9.200;2022-08-30T10:30:57;5.55;;;3.00;;
9485;SDS011;4781;48.776;9.200;2022-08-30T10:33:38;6.37;;;2.83;;
9485;SDS011;4781;48.776;9.200;2022-08-30T10:36:11;4.97;;;2.50;;
9485;SDS011;4781;48.776;9.200;2022-08-30T10:38:43;5.85;;;2.83;;
9485;SDS011;4781;48.776;9.200;2022-08-30T10:41:21;4.85;;;2.70;;
9485;SDS011;4781;48.776;9.200;2022-08-30T10:44:01;4.53;;;2.55;;
9485;SDS011;4781;48.776;9.200;2022-08-30T10:47:15;3.83;;;2.33;;
9485;SDS011;4781;48.776;9.200;2022-08-30T10:49:45;4.30;;;2.53;;
9485;SDS011;4781;48.776;9.200;2022-08-30T10:55:27;4.37;;;2.55;;
9485;SDS011;4781;48.776;9.200;2022-08-30T10:58:20;6.45;;;2.30;;
9485;SDS011;4781;48.776;9.200;2022-08-30T11:01:06;3.87;;;2.20;;
9485;SDS011;4781;48.776;9.200;2022-08-30T11:09:41;5.15;;;2.22;;
9485;SDS011;4781;48.776;9.200;2022-08-30T11:15:25;4.33;;;2.60;;
9485;SDS011;4781;48.776;9.200;2022-08-30T11:18:04;5.63;;;3.00;;
9485;SDS011;4781;48.776;9.200;2022-08-30T11:20:42;4.90;;;2.83;;
9485;SDS011;4781;48.776;9.200;2022-08-30T11:31:07;4.27;;;2.50;;
9485;SDS011;4781;48.776;9.200;2022-08-30T11:39:05;4.83;;;2.80;;
9485;SDS011;4781;48.776;9.200;2022-08-30T11:41:40;5.28;;;2.60;;
9485;SDS011;4781;48.776;9.200;2022-08-30T11:44:30;5.50;;;2.72;;
9485;SDS011;4781;48.776;9.200;2022-08-30T11:55:25;4.37;;;2.62;;
9485;SDS011;4781;48.776;9.200;2022-08-30T12:01:30;4.30;;;2.45;;
9485;SDS011;4781;48.776;9.200;2022-08-30T12:03:53;5.80;;;2.62;;
9485;SDS011;4781;48.776;9.200;2022-08-30T12:14:47;4.25;;;2.30;;
9485;SDS011;4781;48.776;9.200;2022-08-30T12:20:41;4.58;;;2.35;;
9485;SDS011;4781;48.776;9.200;2022-08-30T12:26:10;4.00;;;2.47;;
9485;SDS011;4781;48.776;9.200;2022-08-30T12:28:46;5.03;;;2.60;;
9485;SDS011;4781;48.776;9.200;2022-08-30T12:31:18;5.17;;;2.75;;
9485;SDS011;4781;48.776;9.200;2022-08-30T12:34:00;5.62;;;2.67;;
9485;SDS011;4781;48.776;9.200;2022-08-30T12:36:35;4.67;;;2.55;;
9485;SDS011;4781;48.776;9.200;2022-08-30T12:39:30;4.03;;;2.45;;
9485;SDS011;4781;48.776;9.200;2022-08-30T12:44:49;3.62;;;2.37;;
9485;SDS011;4781;48.776;9.200;2022-08-30T12:47:26;3.98;;;1.90;;
9485;SDS011;4781;48.776;9.200;2022-08-30T12:50:12;4.05;;;2.37;;
9485;SDS011;4781;48.776;9.200;2022-08-30T12:52:44;4.53;;;2.67;;
9485;SDS011;4781;48.776;9.200;2022-08-30T12:55:35;4.05;;;2.35;;
9485;SDS011;4781;48.776;9.200;2022-08-30T12:58:53;4.55;;;2.58;;
9485;SDS011;4781;48.776;9.200;2022-08-30T13:01:30;4.90;;;2.47;;
9485;SDS011;4781;48.776;9.200;2022-08-30T13:06:55;6.10;;;2.50;;
9485;SDS011;4781;48.776;9.200;2022-08-30T13:09:42;4.83;;;2.77;;
9485;SDS011;4781;48.776;9.200;2022-08-30T13:12:11;5.30;;;2.98;;
9485;SDS011;4781;48.776;9.200;2022-08-30T13:14:50;6.12;;;2.60;;
9485;SDS011;4781;48.776;9.200;2022-08-30T13:22:36;4.83;;;2.35;;
9485;SDS011;4781;48.776;9.200;2022-08-30T13:25:08;6.45;;;2.50;;
9485;SDS011;4781;48.776;9.200;2022-08-30T13:27:38;3.85;;;2.35;;
9485;SDS011;4781;48.776;9.200;2022-08-30T13:30:07;4.08;;;2.72;;
9485;SDS011;4781;48.776;9.200;2022-08-30T13:35:09;3.77;;;2.40;;
9485;SDS011;4781;48.776;9.200;2022-08-30T13:37:39;5.37;;;2.72;;
9485;SDS011;4781;48.776;9.200;2022-08-30T13:40:09;4.05;;;2.45;;
9485;SDS011;4781;48.776;9.200;2022-08-30T13:42:40;5.37;;;2.72;;
9485;SDS011;4781;48.776;9.200;2022-08-30T13:45:09;4.58;;;2.42;;
9485;SDS011;4781;48.776;9.200;2022-08-30T13:47:39;4.42;;;2.47;;
9485;SDS011;4781;48.776;9.200;2022-08-30T13:50:08;3.60;;;2.20;;
9485;SDS011;4781;48.776;9.200;2022-08-30T13:52:37;4.72;;;2.55;;
9485;SDS011;4781;48.776;9.200;2022-08-30T13:55:05;4.20;;;2.33;;
9485;SDS011;4781;48.776;9.200;2022-08-30T13:57:34;5.25;;;2.60;;
9485;SDS011;4781;48.776;9.200;2022-08-30T14:00:04;4.78;;;2.54;;
9485;SDS011;4781;48.776;9.200;2022-08-30T14:02:37;6.17;;;2.90;;
9485;SDS011;4781;48.776;9.200;2022-08-30T14:05:07;6.30;;;2.42;;
9485;SDS011;4781;48.776;9.200;2022-08-30T14:07:35;4.45;;;2.47;;
9485;SDS011;4781;48.776;9.200;2022-08-30T14:10:04;4.08;;;2.55;;
9485;SDS011;4781;48.776;9.200;2022-08-30T14:12:33;4.22;;;2.70;;
9485;SDS011;4781;48.776;9.200;2022-08-30T14:15:02;3.37;;;2.05;;
9485;SDS011;4781;48.776;9.200;2022-08-30T14:17:31;4.72;;;2.45;;
9485;SDS011;4781;48.776;9.200;2022-08-30T14:20:00;4.00;;;2.42;;
9485;SDS011;4781;48.776;9.200;2022-08-30T14:22:29;6.62;;;2.60;;
9485;SDS011;4781;48.776;9.200;2022-08-30T14:24:57;3.95;;;2.45;;
9485;SDS011;4781;48.776;9.200;2022-08-30T14:27:27;3.67;;;2.20;;
9485;SDS011;4781;48.776;9.200;2022-08-30T14:29:56;6.05;;;2.50;;
9485;SDS011;4781;48.776;9.200;2022-08-30T14:32:25;4.70;;;2.70;;
9485;SDS011;4781;48.776;9.200;2022-08-30T14:34:53;5.05;;;2.55;;
9485;SDS011;4781;48.776;9.200;2022-08-30T14:37:22;3.90;;;2.20;;
9485;SDS011;4781;48.776;9.200;2022-08-30T14:39:50;3.92;;;2.22;;
9485;SDS011;4781;48.776;9.200;2022-08-30T14:42:19;4.00;;;2.20;;
9485;SDS011;4781;48.776;9.200;2022-08-30T14:44:47;5.08;;;2.72;;
9485;SDS011;4781;48.776;9.200;2022-08-30T14:47:15;3.85;;;2.30;;
9485;SDS011;4781;48.776;9.200;2022-08-30T14:49:44;3.83;;;2.35;;
9485;SDS011;4781;48.776;9.200;2022-08-30T14:52:12;4.17;;;2.50;;
9485;SDS011;4781;48.776;9.200;2022-08-30T14:54:40;4.20;;;2.40;;
9485;SDS011;4781;48.776;9.200;2022-08-30T14:57:09;5.42;;;2.70;;
9485;SDS011;4781;48.776;9.200;2022-08-30T14:59:37;4.22;;;2.35;;
9485;SDS011;4781;48.776;9.200;2022-08-30T15:02:06;4.87;;;2.45;;
9485;SDS011;4781;48.776;9.200;2022-08-30T15:04:35;5.05;;;2.80;;
9485;SDS011;4781;48.776;9.200;2022-08-30T15:07:03;4.35;;;2.55;;
9485;SDS011;4781;48.776;9.200;2022-08-30T15:09:32;5.22;;;2.80;;
9485;SDS011;4781;48.776;9.200;2022-08-30T15:12:00;5.37;;;3.10;;
9485;SDS011;4781;48.776;9.200;2022-08-30T15:14:30;6.33;;;2.60;;
9485;SDS011;4781;48.776;9.200;2022-08-30T15:16:59;4.78;;;2.62;;
9485;SDS011;4781;48.776;9.200;2022-08-30T15:19:28;4.10;;;2.42;;
9485;SDS011;4781;48.776;9.200;2022-08-30T15:21:58;7.72;;;3.00;;
9485;SDS011;4781;48.776;9.200;2022-08-30T15:24:30;7.20;;;2.70;;
9485;SDS011;4781;48.776;9.200;2022-08-30T15:26:59;5.33;;;2.87;;
9485;SDS011;4781;48.776;9.200;2022-08-30T15:29:29;4.53;;;2.52;;
9485;SDS011;4781;48.776;9.200;2022-08-30T15:31:57;5.40;;;3.05;;
9485;SDS011;4781;48.776;9.200;2022-08-30T15:34:28;5.47;;;2.50;;
9485;SDS011;4781;48.776;9.200;2022-08-30T15:36:57;5.25;;;3.00;;
9485;SDS011;4781;48.776;9.200;2022-08-30T15:39:27;5.45;;;2.65;;
9485;SDS011;4781;48.776;9.200;2022-08-30T15:41:56;4.80;;;2.70;;
9485;SDS011;4781;48.776;9.200;2022-08-30T15:44:24;4.58;;;2.60;;
9485;SDS011;4781;48.776;9.200;2022-08-30T15:46:53;4.10;;;2.62;;
9485;SDS011;4781;48.776;9.200;2022-08-30T15:49:22;4.15;;;2.58;;
9485;SDS011;4781;48.776;9.200;2022-08-30T15:51:51;4.33;;;2.80;;
9485;SDS011;4781;48.776;9.200;2022-08-30T15:54:20;4.97;;;2.60;;
9485;SDS011;4781;48.776;9.200;2022-08-30T15:56:49;3.87;;;2.40;;
9485;SDS011;4781;48.776;9.200;2022-08-30T15:59:19;5.95;;;2.60;;
9485;SDS011;4781;48.776;9.200;2022-08-30T16:01:48;4.30;;;2.60;;
9485;SDS011;4781;48.776;9.200;2022-08-30T16:04:16;3.98;;;2.50;;
9485;SDS011;4781;48.776;9.200;2022-08-30T16:06:47;4.97;;;2.77;;
9485;SDS011;4781;48.776;9.200;2022-08-30T16:09:15;4.97;;;2.33;;
9485;SDS011;4781;48.776;9.200;2022-08-30T16:11:44;4.87;;;2.72;;
9485;SDS011;4781;48.776;9.200;2022-08-30T16:14:12;4.90;;;2.62;;
9485;SDS011;4781;48.776;9.200;2022-08-30T16:16:41;5.25;;;2.67;;
9485;SDS011;4781;48.776;9.200;2022-08-30T16:19:11;3.75;;;2.52;;
9485;SDS011;4781;48.776;9.200;2022-08-30T16:21:39;5.33;;;2.80;;
9485;SDS011;4781;48.776;9.200;2022-08-30T16:24:09;5.62;;;2.80;;
9485;SDS011;4781;48.776;9.200;2022-08-30T16:26:38;5.55;;;2.95;;
9485;SDS011;4781;48.776;9.200;2022-08-30T16:29:07;7.90;;;2.98;;
9485;SDS011;4781;48.776;9.200;2022-08-30T16:31:37;6.28;;;3.37;;
9485;SDS011;4781;48.776;9.200;2022-08-30T16:34:05;5.03;;;3.20;;
9485;SDS011;4781;48.776;9.200;2022-08-30T16:36:34;5.75;;;3.02;;
9485;SDS011;4781;48.776;9.200;2022-08-30T16:39:03;5.35;;;3.12;;
9485;SDS011;4781;48.776;9.200;2022-08-30T16:41:34;6.83;;;2.62;;
9485;SDS011;4781;48.776;9.200;2022-08-30T16:44:04;4.17;;;2.70;;
9485;SDS011;4781;48.776;9.200;2022-08-30T16:46:35;4.83;;;2.70;;
9485;SDS011;4781;48.776;9.200;2022-08-30T16:49:05;5.90;;;2.80;;
9485;SDS011;4781;48.776;9.200;2022-08-30T16:51:34;5.08;;;2.90;;
9485;SDS011;4781;48.776;9.200;2022-08-30T16:54:04;4.42;;;2.50;;
9485;SDS011;4781;48.776;9.200;2022-08-30T16:56:33;4.97;;;2.90;;
9485;SDS011;4781;48.776;9.200;2022-08-30T16:59:04;4.62;;;2.95;;
9485;SDS011;4781;48.776;9.200;2022-08-30T17:01:34;4.85;;;2.80;;
9485;SDS011;4781;48.776;9.200;2022-08-30T17:04:03;5.37;;;3.05;;
9485;SDS011;4781;48.776;9.200;2022-08-30T17:06:32;5.95;;;2.87;;
9485;SDS011;4781;48.776;9.200;2022-08-30T17:09:02;5.83;;;3.30;;
9485;SDS011;4781;48.776;9.200;2022-08-30T17:11:32;7.87;;;3.22;;
9485;SDS011;4781;48.776;9.200;2022-08-30T17:14:01;7.65;;;3.60;;
9485;SDS011;4781;48.776;9.200;2022-08-30T17:16:32;5.92;;;2.92;;